sensor_id;sensor_type;location;lat;lon;timestamp;pressure;altitude;pressure_sealevel;temperature
69007;BMP180;56061;51.748;19.620;2024-02-26T00:00:23;98020.00;;;3.60
69007;BMP180;56061;51.748;19.620;2024-02-26T00:02:49;98022.80;;;3.54
69007;BMP180;56061;51.748;19.620;2024-02-26T00:05:16;98019.80;;;3.50
69007;BMP180;56061;51.748;19.620;2024-02-26T00:07:42;98018.60;;;3.40
69007;BMP180;56061;51.748;19.620;2024-02-26T00:12:35;98018.00;;;3.30
69007;BMP180;56061;51.748;19.620;2024-02-26T00:15:02;98013.40;;;3.28
69007;BMP180;56061;51.748;19.620;2024-02-26T00:17:28;98015.80;;;3.20
69007;BMP180;56061;51.748;19.620;2024-02-26T00:19:55;98008.80;;;3.20
69007;BMP180;56061;51.748;19.620;2024-02-26T00:22:21;98003.40;;;3.10
69007;BMP180;56061;51.748;19.620;2024-02-26T00:24:48;98005.40;;;3.10
69007;BMP180;56061;51.748;19.620;2024-02-26T00:27:15;98005.00;;;3.10
69007;BMP180;56061;51.748;19.620;2024-02-26T00:29:41;98004.00;;;3.04
69007;BMP180;56061;51.748;19.620;2024-02-26T00:32:08;98001.80;;;3.00
69007;BMP180;56061;51.748;19.620;2024-02-26T00:34:34;97995.60;;;2.94
69007;BMP180;56061;51.748;19.620;2024-02-26T00:37:02;97998.80;;;2.90
69007;BMP180;56061;51.748;19.620;2024-02-26T00:39:28;98000.20;;;2.90
69007;BMP180;56061;51.748;19.620;2024-02-26T00:41:55;98002.20;;;2.90
69007;BMP180;56061;51.748;19.620;2024-02-26T00:44:21;97995.40;;;2.90
69007;BMP180;56061;51.748;19.620;2024-02-26T00:46:48;97999.40;;;2.82
69007;BMP180;56061;51.748;19.620;2024-02-26T00:49:14;97996.00;;;2.80
69007;BMP180;56061;51.748;19.620;2024-02-26T00:51:41;97996.80;;;2.80
69007;BMP180;56061;51.748;19.620;2024-02-26T00:54:07;98001.20;;;2.72
69007;BMP180;56061;51.748;19.620;2024-02-26T00:56:34;98000.00;;;2.70
69007;BMP180;56061;51.748;19.620;2024-02-26T00:59:00;98000.00;;;2.70
69007;BMP180;56061;51.748;19.620;2024-02-26T01:01:27;97999.60;;;2.60
69007;BMP180;56061;51.748;19.620;2024-02-26T01:03:54;97999.60;;;2.60
69007;BMP180;56061;51.748;19.620;2024-02-26T01:06:20;98005.20;;;2.50
69007;BMP180;56061;51.748;19.620;2024-02-26T01:08:48;98001.40;;;2.48
69007;BMP180;56061;51.748;19.620;2024-02-26T01:11:15;98004.40;;;2.40
69007;BMP180;56061;51.748;19.620;2024-02-26T01:13:42;98001.00;;;2.40
69007;BMP180;56061;51.748;19.620;2024-02-26T01:16:08;97992.80;;;2.40
69007;BMP180;56061;51.748;19.620;2024-02-26T01:18:34;97995.80;;;2.40
69007;BMP180;56061;51.748;19.620;2024-02-26T01:21:01;97999.40;;;2.44
69007;BMP180;56061;51.748;19.620;2024-02-26T01:23:28;97995.40;;;2.46
69007;BMP180;56061;51.748;19.620;2024-02-26T01:25:54;97992.60;;;2.40
69007;BMP180;56061;51.748;19.620;2024-02-26T01:28:21;97990.80;;;2.40
69007;BMP180;56061;51.748;19.620;2024-02-26T01:30:47;97993.40;;;2.30
69007;BMP180;56061;51.748;19.620;2024-02-26T01:33:14;97988.80;;;2.30
69007;BMP180;56061;51.748;19.620;2024-02-26T01:35:41;97999.00;;;2.30
69007;BMP180;56061;51.748;19.620;2024-02-26T01:38:07;97996.40;;;2.22
69007;BMP180;56061;51.748;19.620;2024-02-26T01:40:34;97996.80;;;2.20
69007;BMP180;56061;51.748;19.620;2024-02-26T01:43:02;98001.40;;;2.20
69007;BMP180;56061;51.748;19.620;2024-02-26T01:45:28;98001.00;;;2.18
69007;BMP180;56061;51.748;19.620;2024-02-26T01:47:55;97997.40;;;2.10
69007;BMP180;56061;51.748;19.620;2024-02-26T01:50:23;97997.60;;;2.10
69007;BMP180;56061;51.748;19.620;2024-02-26T01:52:52;97991.20;;;2.10
69007;BMP180;56061;51.748;19.620;2024-02-26T01:55:22;97997.40;;;2.10
69007;BMP180;56061;51.748;19.620;2024-02-26T01:57:51;97997.40;;;2.10
69007;BMP180;56061;51.748;19.620;2024-02-26T02:00:20;98002.20;;;2.12
69007;BMP180;56061;51.748;19.620;2024-02-26T02:02:48;98003.40;;;2.20
69007;BMP180;56061;51.748;19.620;2024-02-26T02:05:16;98001.20;;;2.30
69007;BMP180;56061;51.748;19.620;2024-02-26T02:07:46;98003.00;;;2.30
69007;BMP180;56061;51.748;19.620;2024-02-26T02:10:18;98000.00;;;2.40
69007;BMP180;56061;51.748;19.620;2024-02-26T02:12:49;97997.80;;;2.42
69007;BMP180;56061;51.748;19.620;2024-02-26T02:15:16;97999.60;;;2.50
69007;BMP180;56061;51.748;19.620;2024-02-26T02:17:43;98000.60;;;2.56
69007;BMP180;56061;51.748;19.620;2024-02-26T02:22:36;97998.40;;;2.62
69007;BMP180;56061;51.748;19.620;2024-02-26T02:25:05;98002.60;;;2.70
69007;BMP180;56061;51.748;19.620;2024-02-26T02:27:31;98003.40;;;2.70
69007;BMP180;56061;51.748;19.620;2024-02-26T02:29:58;97999.60;;;2.70
69007;BMP180;56061;51.748;19.620;2024-02-26T02:32:25;98007.40;;;2.70
69007;BMP180;56061;51.748;19.620;2024-02-26T02:34:53;98002.80;;;2.70
69007;BMP180;56061;51.748;19.620;2024-02-26T02:37:19;98000.20;;;2.62
69007;BMP180;56061;51.748;19.620;2024-02-26T02:39:46;98001.20;;;2.60
69007;BMP180;56061;51.748;19.620;2024-02-26T02:42:13;98004.00;;;2.60
69007;BMP180;56061;51.748;19.620;2024-02-26T02:44:39;98008.00;;;2.60
69007;BMP180;56061;51.748;19.620;2024-02-26T02:47:06;98005.60;;;2.60
69007;BMP180;56061;51.748;19.620;2024-02-26T02:49:32;98006.60;;;2.62
69007;BMP180;56061;51.748;19.620;2024-02-26T02:51:59;98007.40;;;2.70
69007;BMP180;56061;51.748;19.620;2024-02-26T02:54:26;98003.80;;;2.70
69007;BMP180;56061;51.748;19.620;2024-02-26T02:56:52;97997.80;;;2.70
69007;BMP180;56061;51.748;19.620;2024-02-26T02:59:19;98006.60;;;2.74
69007;BMP180;56061;51.748;19.620;2024-02-26T03:01:45;98007.20;;;2.80
69007;BMP180;56061;51.748;19.620;2024-02-26T03:04:12;98003.40;;;2.80
69007;BMP180;56061;51.748;19.620;2024-02-26T03:06:39;98003.20;;;2.76
69007;BMP180;56061;51.748;19.620;2024-02-26T03:09:05;98005.80;;;2.70
69007;BMP180;56061;51.748;19.620;2024-02-26T03:11:32;98007.80;;;2.70
69007;BMP180;56061;51.748;19.620;2024-02-26T03:13:58;98004.40;;;2.64
69007;BMP180;56061;51.748;19.620;2024-02-26T03:16:25;98002.60;;;2.60
69007;BMP180;56061;51.748;19.620;2024-02-26T03:18:51;98003.80;;;2.54
69007;BMP180;56061;51.748;19.620;2024-02-26T03:21:18;98000.20;;;2.50
69007;BMP180;56061;51.748;19.620;2024-02-26T03:23:45;98003.60;;;2.50
69007;BMP180;56061;51.748;19.620;2024-02-26T03:26:11;97999.20;;;2.40
69007;BMP180;56061;51.748;19.620;2024-02-26T03:28:40;98003.00;;;2.40
69007;BMP180;56061;51.748;19.620;2024-02-26T03:31:07;97999.20;;;2.30
69007;BMP180;56061;51.748;19.620;2024-02-26T03:33:34;97996.20;;;2.30
69007;BMP180;56061;51.748;19.620;2024-02-26T03:36:01;97997.20;;;2.30
69007;BMP180;56061;51.748;19.620;2024-02-26T03:38:29;97997.00;;;2.22
69007;BMP180;56061;51.748;19.620;2024-02-26T03:40:55;98001.40;;;2.20
69007;BMP180;56061;51.748;19.620;2024-02-26T03:43:22;98007.80;;;2.20
69007;BMP180;56061;51.748;19.620;2024-02-26T03:45:48;98003.20;;;2.20
69007;BMP180;56061;51.748;19.620;2024-02-26T03:48:15;98002.40;;;2.20
69007;BMP180;56061;51.748;19.620;2024-02-26T03:50:42;98006.40;;;2.20
69007;BMP180;56061;51.748;19.620;2024-02-26T03:53:08;98003.60;;;2.20
69007;BMP180;56061;51.748;19.620;2024-02-26T03:55:35;98001.40;;;2.20
69007;BMP180;56061;51.748;19.620;2024-02-26T03:58:02;98004.40;;;2.16
69007;BMP180;56061;51.748;19.620;2024-02-26T04:00:29;98000.40;;;2.12
69007;BMP180;56061;51.748;19.620;2024-02-26T04:02:56;98003.60;;;2.12
69007;BMP180;56061;51.748;19.620;2024-02-26T04:05:23;98006.00;;;2.10
69007;BMP180;56061;51.748;19.620;2024-02-26T04:07:49;98009.40;;;2.10
69007;BMP180;56061;51.748;19.620;2024-02-26T04:10:16;98010.40;;;2.10
69007;BMP180;56061;51.748;19.620;2024-02-26T04:12:42;98007.80;;;2.10
69007;BMP180;56061;51.748;19.620;2024-02-26T04:15:10;98005.60;;;2.06
69007;BMP180;56061;51.748;19.620;2024-02-26T04:17:38;98003.40;;;2.04
69007;BMP180;56061;51.748;19.620;2024-02-26T04:20:06;98006.20;;;2.00
69007;BMP180;56061;51.748;19.620;2024-02-26T04:22:33;98004.40;;;2.00
69007;BMP180;56061;51.748;19.620;2024-02-26T04:24:59;98006.80;;;2.00
69007;BMP180;56061;51.748;19.620;2024-02-26T04:27:26;98006.60;;;2.00
69007;BMP180;56061;51.748;19.620;2024-02-26T04:29:52;98000.20;;;2.00
69007;BMP180;56061;51.748;19.620;2024-02-26T04:32:19;98008.20;;;1.96
69007;BMP180;56061;51.748;19.620;2024-02-26T04:34:45;98004.40;;;1.90
69007;BMP180;56061;51.748;19.620;2024-02-26T04:37:12;98014.40;;;1.90
69007;BMP180;56061;51.748;19.620;2024-02-26T04:39:38;98012.80;;;1.80
69007;BMP180;56061;51.748;19.620;2024-02-26T04:42:05;98003.80;;;1.80
69007;BMP180;56061;51.748;19.620;2024-02-26T04:44:32;98014.00;;;1.80
69007;BMP180;56061;51.748;19.620;2024-02-26T04:46:59;98014.80;;;1.70
69007;BMP180;56061;51.748;19.620;2024-02-26T04:49:27;98007.60;;;1.70
69007;BMP180;56061;51.748;19.620;2024-02-26T04:51:54;98003.60;;;1.70
69007;BMP180;56061;51.748;19.620;2024-02-26T04:54:21;98006.20;;;1.60
69007;BMP180;56061;51.748;19.620;2024-02-26T04:56:48;97999.20;;;1.60
69007;BMP180;56061;51.748;19.620;2024-02-26T04:59:14;98003.60;;;1.60
69007;BMP180;56061;51.748;19.620;2024-02-26T05:01:41;98004.40;;;1.50
69007;BMP180;56061;51.748;19.620;2024-02-26T05:04:08;98005.20;;;1.50
69007;BMP180;56061;51.748;19.620;2024-02-26T05:06:37;98003.40;;;1.48
69007;BMP180;56061;51.748;19.620;2024-02-26T05:09:04;98004.20;;;1.40
69007;BMP180;56061;51.748;19.620;2024-02-26T05:11:30;98004.40;;;1.40
69007;BMP180;56061;51.748;19.620;2024-02-26T05:13:57;98011.60;;;1.38
69007;BMP180;56061;51.748;19.620;2024-02-26T05:16:24;98014.00;;;1.30
69007;BMP180;56061;51.748;19.620;2024-02-26T05:18:53;98016.20;;;1.30
69007;BMP180;56061;51.748;19.620;2024-02-26T05:21:20;98015.60;;;1.24
69007;BMP180;56061;51.748;19.620;2024-02-26T05:23:46;98024.60;;;1.20
69007;BMP180;56061;51.748;19.620;2024-02-26T05:26:20;98029.60;;;1.20
69007;BMP180;56061;51.748;19.620;2024-02-26T05:28:47;98023.80;;;1.20
69007;BMP180;56061;51.748;19.620;2024-02-26T05:31:15;98023.80;;;1.20
69007;BMP180;56061;51.748;19.620;2024-02-26T05:33:42;98025.20;;;1.20
69007;BMP180;56061;51.748;19.620;2024-02-26T05:36:09;98029.60;;;1.20
69007;BMP180;56061;51.748;19.620;2024-02-26T05:38:36;98026.80;;;1.20
69007;BMP180;56061;51.748;19.620;2024-02-26T05:41:02;98030.40;;;1.20
69007;BMP180;56061;51.748;19.620;2024-02-26T05:43:31;98029.60;;;1.20
69007;BMP180;56061;51.748;19.620;2024-02-26T05:45:57;98032.20;;;1.20
69007;BMP180;56061;51.748;19.620;2024-02-26T05:48:24;98034.00;;;1.22
69007;BMP180;56061;51.748;19.620;2024-02-26T05:50:50;98038.60;;;1.30
69007;BMP180;56061;51.748;19.620;2024-02-26T05:53:17;98044.20;;;1.30
69007;BMP180;56061;51.748;19.620;2024-02-26T05:55:43;98045.00;;;1.40
69007;BMP180;56061;51.748;19.620;2024-02-26T05:58:10;98047.80;;;1.40
69007;BMP180;56061;51.748;19.620;2024-02-26T06:00:36;98053.60;;;1.44
69007;BMP180;56061;51.748;19.620;2024-02-26T06:03:03;98052.40;;;1.50
69007;BMP180;56061;51.748;19.620;2024-02-26T06:05:29;98060.00;;;1.50
69007;BMP180;56061;51.748;19.620;2024-02-26T06:07:56;98056.60;;;1.60
69007;BMP180;56061;51.748;19.620;2024-02-26T06:10:22;98058.00;;;1.60
69007;BMP180;56061;51.748;19.620;2024-02-26T06:12:49;98061.20;;;1.70
69007;BMP180;56061;51.748;19.620;2024-02-26T06:15:15;98059.80;;;1.70
69007;BMP180;56061;51.748;19.620;2024-02-26T06:17:42;98053.80;;;1.80
69007;BMP180;56061;51.748;19.620;2024-02-26T06:20:09;98068.80;;;1.82
69007;BMP180;56061;51.748;19.620;2024-02-26T06:22:41;98066.20;;;1.90
69007;BMP180;56061;51.748;19.620;2024-02-26T06:25:08;98063.60;;;2.00
69007;BMP180;56061;51.748;19.620;2024-02-26T06:27:35;98062.20;;;2.10
69007;BMP180;56061;51.748;19.620;2024-02-26T06:30:01;98067.00;;;2.10
69007;BMP180;56061;51.748;19.620;2024-02-26T06:32:28;98067.80;;;2.20
69007;BMP180;56061;51.748;19.620;2024-02-26T06:34:55;98061.60;;;2.30
69007;BMP180;56061;51.748;19.620;2024-02-26T06:37:23;98070.40;;;2.36
69007;BMP180;56061;51.748;19.620;2024-02-26T06:39:50;98070.40;;;2.42
69007;BMP180;56061;51.748;19.620;2024-02-26T06:42:18;98074.60;;;2.50
69007;BMP180;56061;51.748;19.620;2024-02-26T06:44:45;98072.60;;;2.60
69007;BMP180;56061;51.748;19.620;2024-02-26T06:47:12;98074.20;;;2.70
69007;BMP180;56061;51.748;19.620;2024-02-26T06:49:38;98072.60;;;2.80
69007;BMP180;56061;51.748;19.620;2024-02-26T06:52:05;98070.60;;;2.90
69007;BMP180;56061;51.748;19.620;2024-02-26T06:54:32;98070.40;;;3.00
69007;BMP180;56061;51.748;19.620;2024-02-26T06:56:59;98069.40;;;3.12
69007;BMP180;56061;51.748;19.620;2024-02-26T06:59:26;98066.60;;;3.30
69007;BMP180;56061;51.748;19.620;2024-02-26T07:01:53;98071.40;;;3.40
69007;BMP180;56061;51.748;19.620;2024-02-26T07:04:20;98074.20;;;3.50
69007;BMP180;56061;51.748;19.620;2024-02-26T07:06:47;98069.80;;;3.60
69007;BMP180;56061;51.748;19.620;2024-02-26T07:09:13;98081.20;;;3.70
69007;BMP180;56061;51.748;19.620;2024-02-26T07:11:40;98084.00;;;3.80
69007;BMP180;56061;51.748;19.620;2024-02-26T07:14:09;98085.40;;;3.92
69007;BMP180;56061;51.748;19.620;2024-02-26T07:16:35;98083.20;;;4.04
69007;BMP180;56061;51.748;19.620;2024-02-26T07:19:03;98085.60;;;4.20
69007;BMP180;56061;51.748;19.620;2024-02-26T07:21:30;98080.60;;;4.32
69007;BMP180;56061;51.748;19.620;2024-02-26T07:23:57;98078.00;;;4.50
69007;BMP180;56061;51.748;19.620;2024-02-26T07:26:24;98079.80;;;4.70
69007;BMP180;56061;51.748;19.620;2024-02-26T07:28:52;98075.80;;;4.86
69007;BMP180;56061;51.748;19.620;2024-02-26T07:31:19;98080.20;;;5.00
69007;BMP180;56061;51.748;19.620;2024-02-26T07:33:46;98081.80;;;5.20
69007;BMP180;56061;51.748;19.620;2024-02-26T07:36:12;98084.60;;;5.40
69007;BMP180;56061;51.748;19.620;2024-02-26T07:38:39;98082.00;;;5.50
69007;BMP180;56061;51.748;19.620;2024-02-26T07:41:09;98080.40;;;5.66
69007;BMP180;56061;51.748;19.620;2024-02-26T07:43:36;98080.20;;;5.80
69007;BMP180;56061;51.748;19.620;2024-02-26T07:46:03;98085.20;;;5.98
69007;BMP180;56061;51.748;19.620;2024-02-26T07:48:29;98083.40;;;6.10
69007;BMP180;56061;51.748;19.620;2024-02-26T07:50:56;98083.60;;;6.20
69007;BMP180;56061;51.748;19.620;2024-02-26T07:53:25;98087.40;;;6.40
69007;BMP180;56061;51.748;19.620;2024-02-26T07:55:52;98083.00;;;6.50
69007;BMP180;56061;51.748;19.620;2024-02-26T07:58:19;98082.20;;;6.60
69007;BMP180;56061;51.748;19.620;2024-02-26T08:00:45;98079.80;;;6.74
69007;BMP180;56061;51.748;19.620;2024-02-26T08:03:13;98083.80;;;6.90
69007;BMP180;56061;51.748;19.620;2024-02-26T08:05:42;98078.20;;;7.00
69007;BMP180;56061;51.748;19.620;2024-02-26T08:08:10;98083.40;;;7.10
69007;BMP180;56061;51.748;19.620;2024-02-26T08:10:36;98078.80;;;7.20
69007;BMP180;56061;51.748;19.620;2024-02-26T08:13:03;98081.60;;;7.32
69007;BMP180;56061;51.748;19.620;2024-02-26T08:15:33;98085.40;;;7.48
69007;BMP180;56061;51.748;19.620;2024-02-26T08:18:04;98092.20;;;7.60
69007;BMP180;56061;51.748;19.620;2024-02-26T08:20:32;98085.60;;;7.62
69007;BMP180;56061;51.748;19.620;2024-02-26T08:22:58;98082.40;;;7.80
69007;BMP180;56061;51.748;19.620;2024-02-26T08:25:25;98082.20;;;7.88
69007;BMP180;56061;51.748;19.620;2024-02-26T08:27:52;98083.80;;;8.00
69007;BMP180;56061;51.748;19.620;2024-02-26T08:30:18;98086.00;;;8.10
69007;BMP180;56061;51.748;19.620;2024-02-26T08:32:47;98091.40;;;8.18
69007;BMP180;56061;51.748;19.620;2024-02-26T08:35:18;98089.00;;;8.30
69007;BMP180;56061;51.748;19.620;2024-02-26T08:37:47;98093.20;;;8.34
69007;BMP180;56061;51.748;19.620;2024-02-26T08:40:15;98088.80;;;8.40
69007;BMP180;56061;51.748;19.620;2024-02-26T08:42:41;98091.00;;;8.42
69007;BMP180;56061;51.748;19.620;2024-02-26T08:45:09;98088.20;;;8.50
69007;BMP180;56061;51.748;19.620;2024-02-26T08:47:36;98086.80;;;8.60
69007;BMP180;56061;51.748;19.620;2024-02-26T08:50:06;98088.20;;;8.70
69007;BMP180;56061;51.748;19.620;2024-02-26T08:52:33;98092.40;;;8.80
69007;BMP180;56061;51.748;19.620;2024-02-26T08:55:03;98094.60;;;8.90
69007;BMP180;56061;51.748;19.620;2024-02-26T08:57:31;98096.60;;;9.00
69007;BMP180;56061;51.748;19.620;2024-02-26T09:00:01;98092.80;;;9.02
69007;BMP180;56061;51.748;19.620;2024-02-26T09:02:36;98097.60;;;9.10
69007;BMP180;56061;51.748;19.620;2024-02-26T09:05:05;98096.20;;;9.20
69007;BMP180;56061;51.748;19.620;2024-02-26T09:07:32;98096.00;;;9.30
69007;BMP180;56061;51.748;19.620;2024-02-26T09:10:00;98095.60;;;9.40
69007;BMP180;56061;51.748;19.620;2024-02-26T09:12:51;98093.00;;;9.48
69007;BMP180;56061;51.748;19.620;2024-02-26T09:15:17;98090.80;;;9.50
69007;BMP180;56061;51.748;19.620;2024-02-26T09:17:44;98090.80;;;9.60
69007;BMP180;56061;51.748;19.620;2024-02-26T09:20:12;98092.40;;;9.70
69007;BMP180;56061;51.748;19.620;2024-02-26T09:22:50;98091.20;;;9.70
69007;BMP180;56061;51.748;19.620;2024-02-26T09:25:17;98088.20;;;9.74
69007;BMP180;56061;51.748;19.620;2024-02-26T09:27:44;98087.60;;;9.80
69007;BMP180;56061;51.748;19.620;2024-02-26T09:32:40;98091.40;;;10.00
69007;BMP180;56061;51.748;19.620;2024-02-26T09:35:07;98086.80;;;10.10
69007;BMP180;56061;51.748;19.620;2024-02-26T09:37:34;98084.40;;;10.20
69007;BMP180;56061;51.748;19.620;2024-02-26T09:40:04;98084.20;;;10.20
69007;BMP180;56061;51.748;19.620;2024-02-26T09:42:34;98082.40;;;10.30
69007;BMP180;56061;51.748;19.620;2024-02-26T09:50:41;98083.60;;;10.50
69007;BMP180;56061;51.748;19.620;2024-02-26T09:55:41;98090.00;;;10.70
69007;BMP180;56061;51.748;19.620;2024-02-26T09:58:09;98090.20;;;10.78
69007;BMP180;56061;51.748;19.620;2024-02-26T10:00:37;98087.60;;;10.90
69007;BMP180;56061;51.748;19.620;2024-02-26T10:06:09;98087.80;;;11.10
69007;BMP180;56061;51.748;19.620;2024-02-26T10:08:37;98084.20;;;11.20
69007;BMP180;56061;51.748;19.620;2024-02-26T10:11:37;98084.20;;;11.30
69007;BMP180;56061;51.748;19.620;2024-02-26T10:14:04;98082.20;;;11.50
69007;BMP180;56061;51.748;19.620;2024-02-26T10:16:33;98082.60;;;11.60
69007;BMP180;56061;51.748;19.620;2024-02-26T10:21:39;98091.80;;;11.82
69007;BMP180;56061;51.748;19.620;2024-02-26T10:26:46;98088.40;;;12.06
69007;BMP180;56061;51.748;19.620;2024-02-26T10:29:37;98085.20;;;12.20
69007;BMP180;56061;51.748;19.620;2024-02-26T10:32:04;98087.80;;;12.20
69007;BMP180;56061;51.748;19.620;2024-02-26T10:34:31;98085.80;;;12.30
69007;BMP180;56061;51.748;19.620;2024-02-26T10:37:12;98080.20;;;12.40
69007;BMP180;56061;51.748;19.620;2024-02-26T10:39:47;98079.80;;;12.50
69007;BMP180;56061;51.748;19.620;2024-02-26T10:42:14;98083.00;;;12.60
69007;BMP180;56061;51.748;19.620;2024-02-26T10:44:41;98085.20;;;12.66
69007;BMP180;56061;51.748;19.620;2024-02-26T10:50:06;98077.00;;;12.90
69007;BMP180;56061;51.748;19.620;2024-02-26T10:52:35;98073.00;;;12.98
69007;BMP180;56061;51.748;19.620;2024-02-26T10:55:06;98070.40;;;13.06
69007;BMP180;56061;51.748;19.620;2024-02-26T10:57:40;98068.20;;;13.10
69007;BMP180;56061;51.748;19.620;2024-02-26T11:00:08;98067.80;;;13.20
69007;BMP180;56061;51.748;19.620;2024-02-26T11:02:40;98070.80;;;13.20
69007;BMP180;56061;51.748;19.620;2024-02-26T11:08:05;98075.80;;;13.34
69007;BMP180;56061;51.748;19.620;2024-02-26T11:10:32;98074.20;;;13.40
69007;BMP180;56061;51.748;19.620;2024-02-26T11:15:39;98067.80;;;13.50
69007;BMP180;56061;51.748;19.620;2024-02-26T11:18:07;98065.80;;;13.60
69007;BMP180;56061;51.748;19.620;2024-02-26T11:20:38;98070.40;;;13.68
69007;BMP180;56061;51.748;19.620;2024-02-26T11:26:05;98058.60;;;13.70
69007;BMP180;56061;51.748;19.620;2024-02-26T11:28:33;98063.00;;;13.78
69007;BMP180;56061;51.748;19.620;2024-02-26T11:31:07;98061.40;;;13.80
69007;BMP180;56061;51.748;19.620;2024-02-26T11:33:36;98066.60;;;13.90
69007;BMP180;56061;51.748;19.620;2024-02-26T11:36:09;98058.60;;;14.00
69007;BMP180;56061;51.748;19.620;2024-02-26T11:38:37;98058.40;;;14.00
69007;BMP180;56061;51.748;19.620;2024-02-26T11:43:57;98058.40;;;14.10
69007;BMP180;56061;51.748;19.620;2024-02-26T11:49:39;98052.60;;;14.10
69007;BMP180;56061;51.748;19.620;2024-02-26T11:52:09;98051.80;;;14.16
69007;BMP180;56061;51.748;19.620;2024-02-26T11:55:08;98051.40;;;14.20
69007;BMP180;56061;51.748;19.620;2024-02-26T11:57:39;98049.40;;;14.24
69007;BMP180;56061;51.748;19.620;2024-02-26T12:02:47;98043.40;;;14.30
69007;BMP180;56061;51.748;19.620;2024-02-26T12:05:21;98049.60;;;14.20
69007;BMP180;56061;51.748;19.620;2024-02-26T12:07:59;98050.40;;;14.20
69007;BMP180;56061;51.748;19.620;2024-02-26T12:10:39;98051.60;;;14.20
69007;BMP180;56061;51.748;19.620;2024-02-26T12:18:34;98047.40;;;14.10
69007;BMP180;56061;51.748;19.620;2024-02-26T12:21:03;98048.40;;;14.20
69007;BMP180;56061;51.748;19.620;2024-02-26T12:23:30;98046.00;;;14.20
69007;BMP180;56061;51.748;19.620;2024-02-26T12:26:01;98051.40;;;14.24
69007;BMP180;56061;51.748;19.620;2024-02-26T12:28:59;98052.00;;;14.30
69007;BMP180;56061;51.748;19.620;2024-02-26T12:31:26;98051.20;;;14.40
69007;BMP180;56061;51.748;19.620;2024-02-26T12:33:55;98054.40;;;14.50
69007;BMP180;56061;51.748;19.620;2024-02-26T12:36:47;98054.00;;;14.50
69007;BMP180;56061;51.748;19.620;2024-02-26T12:39:13;98057.20;;;14.60
69007;BMP180;56061;51.748;19.620;2024-02-26T12:41:40;98060.60;;;14.70
69007;BMP180;56061;51.748;19.620;2024-02-26T12:44:08;98064.40;;;14.70
69007;BMP180;56061;51.748;19.620;2024-02-26T12:46:35;98067.00;;;14.70
69007;BMP180;56061;51.748;19.620;2024-02-26T12:49:01;98063.20;;;14.70
69007;BMP180;56061;51.748;19.620;2024-02-26T12:51:29;98063.20;;;14.70
69007;BMP180;56061;51.748;19.620;2024-02-26T12:53:56;98057.20;;;14.70
69007;BMP180;56061;51.748;19.620;2024-02-26T12:56:24;98056.60;;;14.70
69007;BMP180;56061;51.748;19.620;2024-02-26T12:59:02;98054.80;;;14.72
69007;BMP180;56061;51.748;19.620;2024-02-26T13:01:30;98050.80;;;14.80
69007;BMP180;56061;51.748;19.620;2024-02-26T13:03:57;98055.00;;;14.80
69007;BMP180;56061;51.748;19.620;2024-02-26T13:06:25;98055.40;;;14.80
69007;BMP180;56061;51.748;19.620;2024-02-26T13:08:57;98055.20;;;14.90
69007;BMP180;56061;51.748;19.620;2024-02-26T13:11:42;98052.20;;;14.90
69007;BMP180;56061;51.748;19.620;2024-02-26T13:16:39;98054.00;;;14.98
69007;BMP180;56061;51.748;19.620;2024-02-26T13:21:44;98052.00;;;15.00
69007;BMP180;56061;51.748;19.620;2024-02-26T13:26:38;98049.60;;;15.10
69007;BMP180;56061;51.748;19.620;2024-02-26T13:29:05;98050.20;;;15.10
69007;BMP180;56061;51.748;19.620;2024-02-26T13:31:44;98053.00;;;15.10
69007;BMP180;56061;51.748;19.620;2024-02-26T13:34:11;98052.40;;;15.10
69007;BMP180;56061;51.748;19.620;2024-02-26T13:36:37;98047.20;;;15.00
69007;BMP180;56061;51.748;19.620;2024-02-26T13:39:04;98052.20;;;15.00
69007;BMP180;56061;51.748;19.620;2024-02-26T13:41:31;98052.20;;;15.00
69007;BMP180;56061;51.748;19.620;2024-02-26T13:44:09;98055.00;;;14.92
69007;BMP180;56061;51.748;19.620;2024-02-26T13:46:35;98058.80;;;14.90
69007;BMP180;56061;51.748;19.620;2024-02-26T13:49:02;98056.60;;;14.90
69007;BMP180;56061;51.748;19.620;2024-02-26T13:51:29;98059.80;;;14.90
69007;BMP180;56061;51.748;19.620;2024-02-26T13:54:02;98067.80;;;14.90
69007;BMP180;56061;51.748;19.620;2024-02-26T13:56:37;98073.40;;;14.80
69007;BMP180;56061;51.748;19.620;2024-02-26T13:59:04;98073.00;;;14.70
69007;BMP180;56061;51.748;19.620;2024-02-26T14:01:31;98067.80;;;14.50
69007;BMP180;56061;51.748;19.620;2024-02-26T14:04:00;98069.80;;;14.38
69007;BMP180;56061;51.748;19.620;2024-02-26T14:06:41;98074.00;;;14.28
69007;BMP180;56061;51.748;19.620;2024-02-26T14:09:07;98070.80;;;14.20
69007;BMP180;56061;51.748;19.620;2024-02-26T14:11:34;98075.40;;;14.20
69007;BMP180;56061;51.748;19.620;2024-02-26T14:14:01;98076.60;;;14.20
69007;BMP180;56061;51.748;19.620;2024-02-26T14:16:27;98076.20;;;14.30
69007;BMP180;56061;51.748;19.620;2024-02-26T14:19:07;98073.20;;;14.30
69007;BMP180;56061;51.748;19.620;2024-02-26T14:21:35;98072.80;;;14.36
69007;BMP180;56061;51.748;19.620;2024-02-26T14:24:03;98068.00;;;14.40
69007;BMP180;56061;51.748;19.620;2024-02-26T14:26:30;98068.40;;;14.40
69007;BMP180;56061;51.748;19.620;2024-02-26T14:28:56;98072.00;;;14.40
69007;BMP180;56061;51.748;19.620;2024-02-26T14:31:37;98070.00;;;14.46
69007;BMP180;56061;51.748;19.620;2024-02-26T14:34:04;98070.80;;;14.50
69007;BMP180;56061;51.748;19.620;2024-02-26T14:36:30;98067.60;;;14.50
69007;BMP180;56061;51.748;19.620;2024-02-26T14:38:57;98070.60;;;14.42
69007;BMP180;56061;51.748;19.620;2024-02-26T14:41:36;98076.20;;;14.40
69007;BMP180;56061;51.748;19.620;2024-02-26T14:44:03;98076.80;;;14.32
69007;BMP180;56061;51.748;19.620;2024-02-26T14:46:29;98072.60;;;14.30
69007;BMP180;56061;51.748;19.620;2024-02-26T14:48:56;98076.60;;;14.30
69007;BMP180;56061;51.748;19.620;2024-02-26T14:51:22;98079.20;;;14.20
69007;BMP180;56061;51.748;19.620;2024-02-26T14:53:58;98078.60;;;14.10
69007;BMP180;56061;51.748;19.620;2024-02-26T14:56:27;98080.80;;;14.00
69007;BMP180;56061;51.748;19.620;2024-02-26T14:58:54;98081.80;;;14.00
69007;BMP180;56061;51.748;19.620;2024-02-26T15:01:20;98076.60;;;13.90
69007;BMP180;56061;51.748;19.620;2024-02-26T15:03:47;98072.00;;;13.80
69007;BMP180;56061;51.748;19.620;2024-02-26T15:06:39;98075.00;;;13.74